createdAt,value
2019-02-04T09:48:26.029Z,48.10
2019-02-04T09:50:52.299Z,38.43
2019-02-04T09:53:18.486Z,38.03
2019-02-04T09:55:44.688Z,22.60
2019-02-04T09:58:10.874Z,20.40
2019-02-04T10:00:37.163Z,15.33
2019-02-04T10:03:05.469Z,17.40
2019-02-04T10:05:31.877Z,18.70
2019-02-04T10:07:58.474Z,16.53
2019-02-04T10:10:27.882Z,16.03
2019-02-04T10:12:54.074Z,14.13
2019-02-04T10:15:28.022Z,21.13
2019-02-04T10:17:54.412Z,17.47
2019-02-04T10:20:20.588Z,18.57
2019-02-04T10:22:46.784Z,19.93
2019-02-04T10:25:29.486Z,22.27
2019-02-04T10:27:55.770Z,15.03
2019-02-04T10:30:23.165Z,21.27
2019-02-04T10:32:49.754Z,17.87
2019-02-04T10:35:18.334Z,20.63
2019-02-04T10:37:47.838Z,16.40
2019-02-04T10:40:23.014Z,20.27
2019-02-04T10:42:49.355Z,18.70
2019-02-04T10:45:18.348Z,17.77
2019-02-04T10:47:44.628Z,17.90
2019-02-04T10:50:21.843Z,16.87
2019-02-04T10:52:48.057Z,18.40
2019-02-04T10:55:14.910Z,19.53
2019-02-04T10:57:41.260Z,16.80
2019-02-04T11:00:25.400Z,14.27
2019-02-04T11:02:52.109Z,17.27
2019-02-04T11:05:26.464Z,15.07
2019-02-04T11:07:52.665Z,14.93
2019-02-04T11:10:22.168Z,17.73
2019-02-04T11:12:48.835Z,19.37
2019-02-04T11:15:16.230Z,18.10
2019-02-04T11:18:33.172Z,15.03
2019-02-04T11:20:59.354Z,16.93
2019-02-04T11:23:25.602Z,18.03
2019-02-04T11:25:51.857Z,18.70
2019-02-04T11:28:18.400Z,14.40
2019-02-04T11:30:49.450Z,16.03
2019-02-04T11:33:16.062Z,15.00
2019-02-04T11:35:42.262Z,12.47
2019-02-04T11:38:08.434Z,14.83
2019-02-04T11:40:40.179Z,11.67
2019-02-04T11:43:07.519Z,13.97
2019-02-04T11:45:33.803Z,16.30
2019-02-04T11:48:01.261Z,11.70
2019-02-04T11:50:27.497Z,16.37
2019-02-04T11:52:53.700Z,12.37
2019-02-04T11:55:20.393Z,11.00
2019-02-04T11:57:46.589Z,13.30
2019-02-04T12:00:31.599Z,13.13
2019-02-04T12:03:04.331Z,9.60
2019-02-04T12:05:31.580Z,13.83
2019-02-04T12:07:57.881Z,12.97
2019-02-04T12:10:32.562Z,10.43
2019-02-04T12:12:59.486Z,12.00
2019-02-04T12:15:29.295Z,10.90
2019-02-04T12:17:55.602Z,12.60
2019-02-04T12:20:21.894Z,12.70
2019-02-04T12:22:48.291Z,11.73
2019-02-04T12:25:27.303Z,11.50
2019-02-04T12:27:55.298Z,12.87
2019-02-04T12:30:31.907Z,16.73
2019-02-04T12:32:59.576Z,13.27
2019-02-04T12:35:25.973Z,9.37
2019-02-04T12:37:52.278Z,10.77
2019-02-04T12:40:18.586Z,11.60
2019-02-04T12:42:51.105Z,11.47
2019-02-04T12:45:32.610Z,10.53
2019-02-04T12:48:00.915Z,11.43
2019-02-04T12:50:27.387Z,13.63
2019-02-04T12:52:53.582Z,11.37
2019-02-04T12:55:26.442Z,9.27
2019-02-04T12:57:52.646Z,11.90
2019-02-04T13:00:25.503Z,10.13
2019-02-04T13:02:51.711Z,9.57
2019-02-04T13:05:28.218Z,10.40
2019-02-04T13:07:54.456Z,10.20
2019-02-04T13:10:20.995Z,8.57
2019-02-04T13:12:47.198Z,7.93
2019-02-04T13:15:19.962Z,10.23
2019-02-04T13:17:46.461Z,8.73
2019-02-04T13:20:16.363Z,9.00
2019-02-04T13:22:42.566Z,11.67
